sensor_id;sensor_type;location;lat;lon;timestamp;pressure;altitude;pressure_sealevel;temperature;humidity
13027;BME280;6580;42.680;23.324;2024-03-08T00:00:34;95369.16;;;6.91;100.00
13027;BME280;6580;42.680;23.324;2024-03-08T00:03:07;95372.78;;;6.90;100.00
13027;BME280;6580;42.680;23.324;2024-03-08T00:05:35;95364.78;;;6.80;100.00
13027;BME280;6580;42.680;23.324;2024-03-08T00:08:08;95368.00;;;6.84;100.00
13027;BME280;6580;42.680;23.324;2024-03-08T00:10:35;95375.44;;;6.90;100.00
13027;BME280;6580;42.680;23.324;2024-03-08T00:13:05;95358.53;;;6.81;100.00
13027;BME280;6580;42.680;23.324;2024-03-08T00:15:32;95364.00;;;6.89;100.00
13027;BME280;6580;42.680;23.324;2024-03-08T00:18:01;95374.28;;;6.83;100.00
13027;BME280;6580;42.680;23.324;2024-03-08T00:20:29;95368.72;;;6.86;100.00
13027;BME280;6580;42.680;23.324;2024-03-08T00:22:56;95368.56;;;6.87;100.00
13027;BME280;6580;42.680;23.324;2024-03-08T00:25:26;95356.34;;;6.96;100.00
13027;BME280;6580;42.680;23.324;2024-03-08T00:27:53;95367.28;;;6.82;100.00
13027;BME280;6580;42.680;23.324;2024-03-08T00:30:21;95367.00;;;6.75;100.00
13027;BME280;6580;42.680;23.324;2024-03-08T00:32:49;95367.72;;;6.57;100.00
13027;BME280;6580;42.680;23.324;2024-03-08T00:35:16;95367.94;;;6.44;100.00
13027;BME280;6580;42.680;23.324;2024-03-08T00:37:45;95369.03;;;6.42;100.00
13027;BME280;6580;42.680;23.324;2024-03-08T00:40:17;95365.88;;;6.48;100.00
13027;BME280;6580;42.680;23.324;2024-03-08T00:42:52;95367.41;;;6.71;100.00
13027;BME280;6580;42.680;23.324;2024-03-08T00:45:20;95362.94;;;6.71;100.00
13027;BME280;6580;42.680;23.324;2024-03-08T00:47:47;95361.75;;;6.55;100.00
13027;BME280;6580;42.680;23.324;2024-03-08T00:50:14;95365.66;;;6.40;100.00
13027;BME280;6580;42.680;23.324;2024-03-08T00:52:43;95357.41;;;6.33;100.00
13027;BME280;6580;42.680;23.324;2024-03-08T00:55:13;95352.13;;;6.33;100.00
13027;BME280;6580;42.680;23.324;2024-03-08T00:57:40;95352.25;;;6.32;100.00
13027;BME280;6580;42.680;23.324;2024-03-08T01:00:13;95351.34;;;6.22;100.00
13027;BME280;6580;42.680;23.324;2024-03-08T01:02:40;95348.44;;;6.25;100.00
13027;BME280;6580;42.680;23.324;2024-03-08T01:05:07;95350.91;;;6.17;100.00
13027;BME280;6580;42.680;23.324;2024-03-08T01:07:35;95334.00;;;6.29;100.00
13027;BME280;6580;42.680;23.324;2024-03-08T01:10:04;95341.03;;;6.19;100.00
13027;BME280;6580;42.680;23.324;2024-03-08T01:12:35;95331.22;;;6.10;100.00
13027;BME280;6580;42.680;23.324;2024-03-08T01:15:06;95344.06;;;5.94;100.00
13027;BME280;6580;42.680;23.324;2024-03-08T01:17:35;95346.38;;;5.88;100.00
13027;BME280;6580;42.680;23.324;2024-03-08T01:20:07;95349.19;;;5.96;100.00
13027;BME280;6580;42.680;23.324;2024-03-08T01:22:37;95339.16;;;6.10;100.00
13027;BME280;6580;42.680;23.324;2024-03-08T01:25:05;95332.00;;;6.01;100.00
13027;BME280;6580;42.680;23.324;2024-03-08T01:27:35;95337.88;;;6.04;100.00
13027;BME280;6580;42.680;23.324;2024-03-08T01:30:04;95330.34;;;6.00;100.00
13027;BME280;6580;42.680;23.324;2024-03-08T01:32:44;95332.38;;;5.97;100.00
13027;BME280;6580;42.680;23.324;2024-03-08T01:35:13;95332.53;;;5.95;100.00
13027;BME280;6580;42.680;23.324;2024-03-08T01:37:40;95330.53;;;5.88;100.00
13027;BME280;6580;42.680;23.324;2024-03-08T01:40:11;95329.16;;;5.93;100.00
13027;BME280;6580;42.680;23.324;2024-03-08T01:42:40;95329.56;;;6.09;100.00
13027;BME280;6580;42.680;23.324;2024-03-08T01:45:08;95318.72;;;6.12;100.00
13027;BME280;6580;42.680;23.324;2024-03-08T01:47:35;95326.25;;;6.16;100.00
13027;BME280;6580;42.680;23.324;2024-03-08T01:50:07;95326.78;;;6.31;100.00
13027;BME280;6580;42.680;23.324;2024-03-08T01:52:37;95321.94;;;6.36;100.00
13027;BME280;6580;42.680;23.324;2024-03-08T01:55:05;95324.06;;;6.21;100.00
13027;BME280;6580;42.680;23.324;2024-03-08T01:57:36;95314.56;;;6.19;100.00
13027;BME280;6580;42.680;23.324;2024-03-08T02:00:07;95317.75;;;6.13;100.00
13027;BME280;6580;42.680;23.324;2024-03-08T02:02:37;95323.56;;;6.07;100.00
13027;BME280;6580;42.680;23.324;2024-03-08T02:05:08;95305.50;;;6.12;100.00
13027;BME280;6580;42.680;23.324;2024-03-08T02:07:37;95314.22;;;6.23;100.00
13027;BME280;6580;42.680;23.324;2024-03-08T02:10:06;95314.94;;;6.25;100.00
13027;BME280;6580;42.680;23.324;2024-03-08T02:12:33;95311.63;;;6.33;100.00
13027;BME280;6580;42.680;23.324;2024-03-08T02:15:00;95308.19;;;6.42;100.00
13027;BME280;6580;42.680;23.324;2024-03-08T02:17:27;95311.09;;;6.39;100.00
13027;BME280;6580;42.680;23.324;2024-03-08T02:19:56;95311.22;;;6.37;100.00
13027;BME280;6580;42.680;23.324;2024-03-08T02:22:27;95303.09;;;6.50;100.00
13027;BME280;6580;42.680;23.324;2024-03-08T02:24:55;95315.69;;;6.37;100.00
13027;BME280;6580;42.680;23.324;2024-03-08T02:27:23;95318.66;;;6.43;100.00
13027;BME280;6580;42.680;23.324;2024-03-08T02:29:52;95318.97;;;6.50;100.00
13027;BME280;6580;42.680;23.324;2024-03-08T02:32:22;95322.31;;;6.52;100.00
13027;BME280;6580;42.680;23.324;2024-03-08T02:34:50;95317.91;;;6.62;100.00
13027;BME280;6580;42.680;23.324;2024-03-08T02:37:18;95317.47;;;6.36;100.00
13027;BME280;6580;42.680;23.324;2024-03-08T02:39:47;95326.44;;;6.45;100.00
13027;BME280;6580;42.680;23.324;2024-03-08T02:42:17;95318.06;;;6.40;100.00
13027;BME280;6580;42.680;23.324;2024-03-08T02:44:45;95323.66;;;6.46;100.00
13027;BME280;6580;42.680;23.324;2024-03-08T02:47:14;95320.97;;;6.16;100.00
13027;BME280;6580;42.680;23.324;2024-03-08T02:49:44;95317.28;;;6.28;100.00
13027;BME280;6580;42.680;23.324;2024-03-08T02:52:12;95324.00;;;6.12;100.00
13027;BME280;6580;42.680;23.324;2024-03-08T02:54:40;95319.63;;;6.22;100.00
13027;BME280;6580;42.680;23.324;2024-03-08T02:57:13;95320.41;;;6.13;100.00
13027;BME280;6580;42.680;23.324;2024-03-08T02:59:40;95321.16;;;6.04;100.00
13027;BME280;6580;42.680;23.324;2024-03-08T03:02:07;95319.75;;;6.20;100.00
13027;BME280;6580;42.680;23.324;2024-03-08T03:04:36;95320.47;;;6.22;100.00
13027;BME280;6580;42.680;23.324;2024-03-08T03:07:06;95324.38;;;6.28;100.00
13027;BME280;6580;42.680;23.324;2024-03-08T03:09:33;95326.41;;;6.15;100.00
13027;BME280;6580;42.680;23.324;2024-03-08T03:12:00;95313.56;;;6.31;100.00
13027;BME280;6580;42.680;23.324;2024-03-08T03:14:35;95318.84;;;6.31;100.00
13027;BME280;6580;42.680;23.324;2024-03-08T03:17:04;95326.19;;;6.48;100.00
13027;BME280;6580;42.680;23.324;2024-03-08T03:19:32;95322.13;;;6.44;100.00
13027;BME280;6580;42.680;23.324;2024-03-08T03:22:02;95327.34;;;6.34;100.00
13027;BME280;6580;42.680;23.324;2024-03-08T03:24:32;95330.44;;;6.19;100.00
13027;BME280;6580;42.680;23.324;2024-03-08T03:27:01;95337.41;;;6.20;100.00
13027;BME280;6580;42.680;23.324;2024-03-08T03:29:38;95333.16;;;6.28;100.00
13027;BME280;6580;42.680;23.324;2024-03-08T03:32:05;95341.31;;;6.16;100.00
13027;BME280;6580;42.680;23.324;2024-03-08T03:34:33;95333.22;;;6.38;100.00
13027;BME280;6580;42.680;23.324;2024-03-08T03:37:02;95343.72;;;6.28;100.00
13027;BME280;6580;42.680;23.324;2024-03-08T03:39:29;95341.09;;;6.28;100.00
13027;BME280;6580;42.680;23.324;2024-03-08T03:41:57;95351.28;;;6.33;100.00
13027;BME280;6580;42.680;23.324;2024-03-08T03:44:25;95346.59;;;6.16;100.00
13027;BME280;6580;42.680;23.324;2024-03-08T03:46:57;95353.91;;;6.12;100.00
13027;BME280;6580;42.680;23.324;2024-03-08T03:49:24;95352.84;;;6.15;100.00
13027;BME280;6580;42.680;23.324;2024-03-08T03:51:54;95357.41;;;6.13;100.00
13027;BME280;6580;42.680;23.324;2024-03-08T03:54:21;95355.66;;;6.03;100.00
13027;BME280;6580;42.680;23.324;2024-03-08T03:56:48;95364.38;;;6.14;100.00
13027;BME280;6580;42.680;23.324;2024-03-08T03:59:19;95358.41;;;6.01;100.00
13027;BME280;6580;42.680;23.324;2024-03-08T04:01:47;95363.38;;;5.95;100.00
13027;BME280;6580;42.680;23.324;2024-03-08T04:04:18;95360.38;;;5.99;100.00
13027;BME280;6580;42.680;23.324;2024-03-08T04:06:46;95368.72;;;5.84;100.00
13027;BME280;6580;42.680;23.324;2024-03-08T04:09:15;95367.34;;;6.00;100.00
13027;BME280;6580;42.680;23.324;2024-03-08T04:11:44;95375.78;;;5.94;100.00
13027;BME280;6580;42.680;23.324;2024-03-08T04:14:13;95373.72;;;5.98;100.00
13027;BME280;6580;42.680;23.324;2024-03-08T04:16:40;95374.56;;;5.98;100.00
13027;BME280;6580;42.680;23.324;2024-03-08T04:19:08;95372.66;;;5.89;100.00
13027;BME280;6580;42.680;23.324;2024-03-08T04:21:37;95377.28;;;6.07;100.00
13027;BME280;6580;42.680;23.324;2024-03-08T04:24:05;95373.38;;;5.91;100.00
13027;BME280;6580;42.680;23.324;2024-03-08T04:26:34;95386.28;;;6.05;100.00
13027;BME280;6580;42.680;23.324;2024-03-08T04:29:01;95385.00;;;6.00;100.00
13027;BME280;6580;42.680;23.324;2024-03-08T04:31:29;95387.97;;;6.06;100.00
13027;BME280;6580;42.680;23.324;2024-03-08T04:33:57;95395.97;;;5.95;100.00
13027;BME280;6580;42.680;23.324;2024-03-08T04:36:25;95393.81;;;5.89;100.00
13027;BME280;6580;42.680;23.324;2024-03-08T04:38:55;95397.53;;;5.76;100.00
13027;BME280;6580;42.680;23.324;2024-03-08T04:41:22;95406.78;;;6.12;100.00
13027;BME280;6580;42.680;23.324;2024-03-08T04:43:50;95403.56;;;6.09;100.00
13027;BME280;6580;42.680;23.324;2024-03-08T04:46:17;95396.44;;;6.00;100.00
13027;BME280;6580;42.680;23.324;2024-03-08T04:48:44;95408.53;;;6.03;100.00
13027;BME280;6580;42.680;23.324;2024-03-08T04:51:13;95406.53;;;5.95;100.00
13027;BME280;6580;42.680;23.324;2024-03-08T04:53:41;95407.25;;;5.97;100.00
13027;BME280;6580;42.680;23.324;2024-03-08T04:56:09;95409.56;;;5.91;100.00
13027;BME280;6580;42.680;23.324;2024-03-08T04:58:36;95412.56;;;5.86;100.00
13027;BME280;6580;42.680;23.324;2024-03-08T05:01:03;95403.16;;;5.93;100.00
13027;BME280;6580;42.680;23.324;2024-03-08T05:03:30;95408.22;;;5.85;100.00
13027;BME280;6580;42.680;23.324;2024-03-08T05:05:57;95413.06;;;5.80;100.00
13027;BME280;6580;42.680;23.324;2024-03-08T05:08:24;95414.31;;;5.97;100.00
13027;BME280;6580;42.680;23.324;2024-03-08T05:10:51;95412.53;;;5.97;100.00
13027;BME280;6580;42.680;23.324;2024-03-08T05:13:21;95420.66;;;6.05;100.00
13027;BME280;6580;42.680;23.324;2024-03-08T05:15:49;95416.38;;;5.93;100.00
13027;BME280;6580;42.680;23.324;2024-03-08T05:18:17;95420.22;;;5.89;100.00
13027;BME280;6580;42.680;23.324;2024-03-08T05:20:45;95429.97;;;5.89;100.00
13027;BME280;6580;42.680;23.324;2024-03-08T05:23:12;95425.28;;;5.92;100.00
13027;BME280;6580;42.680;23.324;2024-03-08T05:25:41;95435.63;;;5.84;100.00
13027;BME280;6580;42.680;23.324;2024-03-08T05:28:08;95445.22;;;5.74;100.00
13027;BME280;6580;42.680;23.324;2024-03-08T05:30:38;95441.88;;;5.72;100.00
13027;BME280;6580;42.680;23.324;2024-03-08T05:33:09;95446.56;;;5.69;100.00
13027;BME280;6580;42.680;23.324;2024-03-08T05:35:37;95455.59;;;5.77;100.00
13027;BME280;6580;42.680;23.324;2024-03-08T05:38:04;95461.34;;;5.82;100.00
13027;BME280;6580;42.680;23.324;2024-03-08T05:40:32;95446.28;;;5.94;100.00
13027;BME280;6580;42.680;23.324;2024-03-08T05:42:59;95458.28;;;5.98;100.00
13027;BME280;6580;42.680;23.324;2024-03-08T05:45:25;95461.06;;;5.96;100.00
13027;BME280;6580;42.680;23.324;2024-03-08T05:47:53;95468.56;;;5.80;100.00
13027;BME280;6580;42.680;23.324;2024-03-08T05:50:22;95465.06;;;5.80;100.00
13027;BME280;6580;42.680;23.324;2024-03-08T05:52:53;95469.63;;;5.78;100.00
13027;BME280;6580;42.680;23.324;2024-03-08T05:55:21;95466.03;;;5.79;100.00
13027;BME280;6580;42.680;23.324;2024-03-08T05:57:50;95477.41;;;5.90;100.00
13027;BME280;6580;42.680;23.324;2024-03-08T06:00:19;95480.63;;;6.04;100.00
13027;BME280;6580;42.680;23.324;2024-03-08T06:02:47;95484.09;;;6.05;100.00
13027;BME280;6580;42.680;23.324;2024-03-08T06:05:16;95479.91;;;6.03;100.00
13027;BME280;6580;42.680;23.324;2024-03-08T06:07:47;95487.44;;;6.18;100.00
13027;BME280;6580;42.680;23.324;2024-03-08T06:10:14;95485.13;;;6.24;100.00
13027;BME280;6580;42.680;23.324;2024-03-08T06:12:43;95500.47;;;5.99;100.00
13027;BME280;6580;42.680;23.324;2024-03-08T06:15:11;95443.84;;;5.59;100.00
13027;BME280;6580;42.680;23.324;2024-03-08T06:17:40;95492.06;;;5.83;100.00
13027;BME280;6580;42.680;23.324;2024-03-08T06:20:09;95500.97;;;5.93;100.00
13027;BME280;6580;42.680;23.324;2024-03-08T06:22:40;95496.59;;;6.03;100.00
13027;BME280;6580;42.680;23.324;2024-03-08T06:25:11;95494.19;;;6.11;100.00
13027;BME280;6580;42.680;23.324;2024-03-08T06:27:40;95503.88;;;6.21;100.00
13027;BME280;6580;42.680;23.324;2024-03-08T06:30:08;95500.69;;;6.07;100.00
13027;BME280;6580;42.680;23.324;2024-03-08T06:32:39;95506.38;;;6.23;100.00
13027;BME280;6580;42.680;23.324;2024-03-08T06:35:11;95503.16;;;6.19;100.00
13027;BME280;6580;42.680;23.324;2024-03-08T06:37:48;95507.06;;;5.94;100.00
13027;BME280;6580;42.680;23.324;2024-03-08T06:40:24;95511.28;;;5.96;100.00
13027;BME280;6580;42.680;23.324;2024-03-08T06:42:51;95495.09;;;5.90;100.00
13027;BME280;6580;42.680;23.324;2024-03-08T06:45:19;95517.53;;;5.95;100.00
13027;BME280;6580;42.680;23.324;2024-03-08T06:47:48;95505.75;;;5.99;100.00
13027;BME280;6580;42.680;23.324;2024-03-08T06:50:15;95505.88;;;5.98;100.00
13027;BME280;6580;42.680;23.324;2024-03-08T06:52:43;95511.06;;;5.99;100.00
13027;BME280;6580;42.680;23.324;2024-03-08T06:55:17;95513.41;;;6.13;100.00
13027;BME280;6580;42.680;23.324;2024-03-08T06:57:46;95513.88;;;6.18;100.00
13027;BME280;6580;42.680;23.324;2024-03-08T07:00:15;95523.44;;;6.30;100.00
13027;BME280;6580;42.680;23.324;2024-03-08T07:02:46;95526.66;;;6.44;100.00
13027;BME280;6580;42.680;23.324;2024-03-08T07:05:14;95514.72;;;6.50;100.00
13027;BME280;6580;42.680;23.324;2024-03-08T07:07:43;95519.31;;;6.68;100.00
13027;BME280;6580;42.680;23.324;2024-03-08T07:10:11;95527.16;;;6.70;100.00
13027;BME280;6580;42.680;23.324;2024-03-08T07:12:41;95521.63;;;6.62;100.00
13027;BME280;6580;42.680;23.324;2024-03-08T07:15:08;95524.03;;;6.65;100.00
13027;BME280;6580;42.680;23.324;2024-03-08T07:17:38;95528.03;;;6.80;100.00
13027;BME280;6580;42.680;23.324;2024-03-08T07:20:06;95532.03;;;6.95;100.00
13027;BME280;6580;42.680;23.324;2024-03-08T07:22:38;95516.75;;;6.98;100.00
13027;BME280;6580;42.680;23.324;2024-03-08T07:25:08;95522.44;;;7.14;100.00
13027;BME280;6580;42.680;23.324;2024-03-08T07:27:47;95534.94;;;7.32;100.00
13027;BME280;6580;42.680;23.324;2024-03-08T07:30:14;95532.28;;;7.32;100.00
13027;BME280;6580;42.680;23.324;2024-03-08T07:33:10;95534.06;;;7.22;100.00
13027;BME280;6580;42.680;23.324;2024-03-08T07:35:38;95533.00;;;6.94;100.00
13027;BME280;6580;42.680;23.324;2024-03-08T07:38:08;95538.72;;;7.09;100.00
13027;BME280;6580;42.680;23.324;2024-03-08T07:40:40;95535.09;;;7.31;100.00
13027;BME280;6580;42.680;23.324;2024-03-08T07:43:11;95532.50;;;7.20;100.00
13027;BME280;6580;42.680;23.324;2024-03-08T07:45:40;95539.03;;;6.96;100.00
13027;BME280;6580;42.680;23.324;2024-03-08T07:48:09;95542.72;;;7.24;100.00
13027;BME280;6580;42.680;23.324;2024-03-08T07:50:36;95538.53;;;7.02;100.00
13027;BME280;6580;42.680;23.324;2024-03-08T07:53:04;95540.78;;;6.86;100.00
13027;BME280;6580;42.680;23.324;2024-03-08T07:55:33;95545.81;;;7.09;100.00
13027;BME280;6580;42.680;23.324;2024-03-08T07:58:02;95527.16;;;6.70;100.00
13027;BME280;6580;42.680;23.324;2024-03-08T08:00:30;95544.41;;;6.74;100.00
13027;BME280;6580;42.680;23.324;2024-03-08T08:02:58;95538.06;;;6.76;100.00
13027;BME280;6580;42.680;23.324;2024-03-08T08:05:26;95540.97;;;7.14;100.00
13027;BME280;6580;42.680;23.324;2024-03-08T08:07:57;95530.94;;;7.17;100.00
13027;BME280;6580;42.680;23.324;2024-03-08T08:10:25;95538.31;;;7.34;100.00
13027;BME280;6580;42.680;23.324;2024-03-08T08:12:55;95540.78;;;7.26;100.00
13027;BME280;6580;42.680;23.324;2024-03-08T08:15:24;95536.97;;;7.49;100.00
13027;BME280;6580;42.680;23.324;2024-03-08T08:17:51;95532.13;;;7.54;100.00
13027;BME280;6580;42.680;23.324;2024-03-08T08:20:18;95532.22;;;7.73;100.00
13027;BME280;6580;42.680;23.324;2024-03-08T08:22:47;95528.63;;;8.23;100.00
13027;BME280;6580;42.680;23.324;2024-03-08T08:25:17;95515.41;;;8.99;99.99
13027;BME280;6580;42.680;23.324;2024-03-08T08:27:46;95526.47;;;8.66;97.88
13027;BME280;6580;42.680;23.324;2024-03-08T08:30:13;95527.16;;;8.68;95.57
13027;BME280;6580;42.680;23.324;2024-03-08T08:32:41;95527.44;;;8.93;92.47
13027;BME280;6580;42.680;23.324;2024-03-08T08:35:09;95521.06;;;9.41;89.22
13027;BME280;6580;42.680;23.324;2024-03-08T08:37:39;95521.09;;;9.68;85.05
13027;BME280;6580;42.680;23.324;2024-03-08T08:40:07;95514.19;;;10.83;79.23
13027;BME280;6580;42.680;23.324;2024-03-08T08:42:36;95523.53;;;10.52;79.70
13027;BME280;6580;42.680;23.324;2024-03-08T08:45:08;95499.91;;;11.26;75.83
13027;BME280;6580;42.680;23.324;2024-03-08T08:47:36;95513.28;;;11.34;73.42
13027;BME280;6580;42.680;23.324;2024-03-08T08:50:06;95500.84;;;10.83;71.14
13027;BME280;6580;42.680;23.324;2024-03-08T08:52:33;95505.19;;;10.22;72.10
13027;BME280;6580;42.680;23.324;2024-03-08T08:55:00;95501.63;;;10.75;72.78
13027;BME280;6580;42.680;23.324;2024-03-08T08:57:29;95497.72;;;10.87;72.99
13027;BME280;6580;42.680;23.324;2024-03-08T08:59:59;95504.78;;;11.13;72.04
13027;BME280;6580;42.680;23.324;2024-03-08T09:02:29;95501.81;;;11.93;67.81
13027;BME280;6580;42.680;23.324;2024-03-08T09:04:59;95489.34;;;12.92;62.66
13027;BME280;6580;42.680;23.324;2024-03-08T09:07:29;95491.31;;;11.91;63.66
13027;BME280;6580;42.680;23.324;2024-03-08T09:09:56;95501.91;;;11.75;65.00
13027;BME280;6580;42.680;23.324;2024-03-08T09:12:24;95494.66;;;11.17;67.58
13027;BME280;6580;42.680;23.324;2024-03-08T09:14:51;95500.22;;;11.23;68.02
13027;BME280;6580;42.680;23.324;2024-03-08T09:17:20;95488.47;;;12.18;67.77
13027;BME280;6580;42.680;23.324;2024-03-08T09:19:48;95487.63;;;13.54;57.50
13027;BME280;6580;42.680;23.324;2024-03-08T09:22:15;95472.97;;;15.26;52.45
13027;BME280;6580;42.680;23.324;2024-03-08T09:24:45;95478.84;;;15.44;48.88
13027;BME280;6580;42.680;23.324;2024-03-08T09:27:12;95485.03;;;14.47;51.40
13027;BME280;6580;42.680;23.324;2024-03-08T09:29:39;95472.56;;;15.74;49.27
13027;BME280;6580;42.680;23.324;2024-03-08T09:32:06;95474.66;;;14.74;50.55
13027;BME280;6580;42.680;23.324;2024-03-08T09:34:34;95464.38;;;12.59;54.84
13027;BME280;6580;42.680;23.324;2024-03-08T09:37:01;95476.34;;;11.98;58.10
13027;BME280;6580;42.680;23.324;2024-03-08T09:39:29;95494.28;;;11.80;62.65
13027;BME280;6580;42.680;23.324;2024-03-08T09:41:59;95480.72;;;12.56;59.22
13027;BME280;6580;42.680;23.324;2024-03-08T09:44:26;95480.66;;;12.90;57.52
13027;BME280;6580;42.680;23.324;2024-03-08T09:46:56;95482.38;;;12.08;59.05
13027;BME280;6580;42.680;23.324;2024-03-08T09:49:24;95491.75;;;11.79;61.06
13027;BME280;6580;42.680;23.324;2024-03-08T09:51:52;95494.19;;;11.21;64.96
13027;BME280;6580;42.680;23.324;2024-03-08T09:54:19;95483.94;;;10.39;65.50
13027;BME280;6580;42.680;23.324;2024-03-08T09:56:49;95488.84;;;10.61;66.28
13027;BME280;6580;42.680;23.324;2024-03-08T09:59:22;95490.94;;;10.58;66.90
13027;BME280;6580;42.680;23.324;2024-03-08T10:02:22;95488.53;;;10.82;67.74
13027;BME280;6580;42.680;23.324;2024-03-08T10:04:51;95487.78;;;10.72;66.92
13027;BME280;6580;42.680;23.324;2024-03-08T10:07:24;95489.72;;;10.87;67.92
13027;BME280;6580;42.680;23.324;2024-03-08T10:09:53;95490.88;;;10.50;69.30
13027;BME280;6580;42.680;23.324;2024-03-08T10:12:27;95487.72;;;10.19;72.95
13027;BME280;6580;42.680;23.324;2024-03-08T10:14:55;95477.25;;;10.70;72.37
13027;BME280;6580;42.680;23.324;2024-03-08T10:17:25;95493.97;;;10.98;70.18
13027;BME280;6580;42.680;23.324;2024-03-08T10:19:53;95483.34;;;11.23;66.56
13027;BME280;6580;42.680;23.324;2024-03-08T10:22:19;95472.69;;;11.66;64.30
13027;BME280;6580;42.680;23.324;2024-03-08T10:24:48;95475.56;;;13.66;57.35
13027;BME280;6580;42.680;23.324;2024-03-08T10:27:16;95474.94;;;14.11;52.66
13027;BME280;6580;42.680;23.324;2024-03-08T10:29:48;95465.59;;;15.28;50.48
13027;BME280;6580;42.680;23.324;2024-03-08T10:32:19;95466.03;;;16.34;46.00
13027;BME280;6580;42.680;23.324;2024-03-08T10:34:47;95463.84;;;15.86;47.61
13027;BME280;6580;42.680;23.324;2024-03-08T10:37:16;95449.19;;;15.74;46.46
13027;BME280;6580;42.680;23.324;2024-03-08T10:39:56;95455.63;;;16.81;44.20
13027;BME280;6580;42.680;23.324;2024-03-08T10:42:28;95447.44;;;18.06;42.04
13027;BME280;6580;42.680;23.324;2024-03-08T10:45:03;95433.81;;;17.80;42.07
13027;BME280;6580;42.680;23.324;2024-03-08T10:47:38;95437.84;;;17.22;42.59
13027;BME280;6580;42.680;23.324;2024-03-08T10:50:14;95443.84;;;17.03;42.90
13027;BME280;6580;42.680;23.324;2024-03-08T10:52:48;95440.81;;;16.35;42.98
13027;BME280;6580;42.680;23.324;2024-03-08T10:55:17;95446.97;;;17.41;41.19
13027;BME280;6580;42.680;23.324;2024-03-08T10:57:46;95433.31;;;18.72;39.78
13027;BME280;6580;42.680;23.324;2024-03-08T11:00:14;95424.34;;;17.91;40.45
13027;BME280;6580;42.680;23.324;2024-03-08T11:02:45;95430.34;;;16.61;42.60
13027;BME280;6580;42.680;23.324;2024-03-08T11:05:32;95434.25;;;16.29;41.98
13027;BME280;6580;42.680;23.324;2024-03-08T11:08:06;95433.75;;;18.29;38.44
13027;BME280;6580;42.680;23.324;2024-03-08T11:10:48;95391.75;;;16.19;42.25
13027;BME280;6580;42.680;23.324;2024-03-08T11:13:33;95425.06;;;15.37;44.07
13027;BME280;6580;42.680;23.324;2024-03-08T11:16:00;95424.22;;;15.00;45.52
13027;BME280;6580;42.680;23.324;2024-03-08T11:18:32;95420.31;;;14.58;46.93
13027;BME280;6580;42.680;23.324;2024-03-08T11:21:03;95421.03;;;14.52;48.35
13027;BME280;6580;42.680;23.324;2024-03-08T11:23:32;95420.75;;;14.39;48.66
13027;BME280;6580;42.680;23.324;2024-03-08T11:25:59;95418.34;;;14.97;48.21
13027;BME280;6580;42.680;23.324;2024-03-08T11:28:33;95420.78;;;13.93;49.26
13027;BME280;6580;42.680;23.324;2024-03-08T11:31:22;95417.44;;;13.28;51.02
13027;BME280;6580;42.680;23.324;2024-03-08T11:33:50;95430.66;;;12.09;52.58
13027;BME280;6580;42.680;23.324;2024-03-08T11:36:27;95416.78;;;12.55;51.72
13027;BME280;6580;42.680;23.324;2024-03-08T11:38:57;95413.13;;;13.04;52.17
13027;BME280;6580;42.680;23.324;2024-03-08T11:41:24;95399.28;;;16.09;45.41
13027;BME280;6580;42.680;23.324;2024-03-08T11:44:02;95395.66;;;17.29;41.52
13027;BME280;6580;42.680;23.324;2024-03-08T11:46:31;95392.06;;;17.97;40.76
13027;BME280;6580;42.680;23.324;2024-03-08T11:48:59;95381.13;;;19.31;38.01
13027;BME280;6580;42.680;23.324;2024-03-08T11:51:33;95395.69;;;17.83;38.14
13027;BME280;6580;42.680;23.324;2024-03-08T11:54:00;95402.13;;;16.22;40.98
13027;BME280;6580;42.680;23.324;2024-03-08T11:56:30;95395.91;;;17.54;39.44
13027;BME280;6580;42.680;23.324;2024-03-08T11:58:58;95386.53;;;17.78;37.75
13027;BME280;6580;42.680;23.324;2024-03-08T12:01:25;95392.25;;;16.08;40.69
13027;BME280;6580;42.680;23.324;2024-03-08T12:03:53;95401.25;;;14.53;44.56
13027;BME280;6580;42.680;23.324;2024-03-08T12:06:22;95396.63;;;14.92;44.21
13027;BME280;6580;42.680;23.324;2024-03-08T12:08:51;95395.88;;;13.22;48.21
13027;BME280;6580;42.680;23.324;2024-03-08T12:11:19;95396.56;;;12.68;49.25
13027;BME280;6580;42.680;23.324;2024-03-08T12:13:49;95400.75;;;12.87;49.84
13027;BME280;6580;42.680;23.324;2024-03-08T12:16:23;95401.53;;;15.03;44.78
13027;BME280;6580;42.680;23.324;2024-03-08T12:18:52;95391.56;;;16.70;42.47
13027;BME280;6580;42.680;23.324;2024-03-08T12:21:19;95389.13;;;16.96;41.29
13027;BME280;6580;42.680;23.324;2024-03-08T12:24:02;95400.88;;;15.01;45.12
13027;BME280;6580;42.680;23.324;2024-03-08T12:26:30;95378.75;;;17.34;40.83
13027;BME280;6580;42.680;23.324;2024-03-08T12:29:15;95383.19;;;17.00;40.58
13027;BME280;6580;42.680;23.324;2024-03-08T12:31:43;95380.13;;;16.82;40.77
13027;BME280;6580;42.680;23.324;2024-03-08T12:34:12;95375.22;;;16.71;40.97
13027;BME280;6580;42.680;23.324;2024-03-08T12:36:45;95382.63;;;15.70;43.86
13027;BME280;6580;42.680;23.324;2024-03-08T12:39:16;95378.47;;;13.88;47.29
13027;BME280;6580;42.680;23.324;2024-03-08T12:41:43;95388.25;;;12.95;50.11
13027;BME280;6580;42.680;23.324;2024-03-08T12:44:13;95391.00;;;12.38;52.60
13027;BME280;6580;42.680;23.324;2024-03-08T12:46:40;95385.31;;;12.17;53.53
13027;BME280;6580;42.680;23.324;2024-03-08T12:49:09;95365.06;;;14.94;48.16
13027;BME280;6580;42.680;23.324;2024-03-08T12:51:39;95359.28;;;15.41;46.38
13027;BME280;6580;42.680;23.324;2024-03-08T12:54:07;95365.75;;;16.54;43.59
13027;BME280;6580;42.680;23.324;2024-03-08T12:56:36;95370.03;;;16.49;43.06
13027;BME280;6580;42.680;23.324;2024-03-08T12:59:07;95358.22;;;16.15;42.51
13027;BME280;6580;42.680;23.324;2024-03-08T13:01:43;95359.63;;;16.81;42.09
13027;BME280;6580;42.680;23.324;2024-03-08T13:04:10;95365.69;;;16.69;41.37
13027;BME280;6580;42.680;23.324;2024-03-08T13:06:37;95359.56;;;15.75;42.53
13027;BME280;6580;42.680;23.324;2024-03-08T13:09:04;95371.16;;;16.40;41.29
13027;BME280;6580;42.680;23.324;2024-03-08T13:11:31;95369.75;;;15.94;42.17